createdAt,value
2022-12-29T00:00:55.423Z,23.10
2022-12-29T00:01:57.424Z,22.23
2022-12-29T00:02:59.325Z,17.70
2022-12-29T00:04:01.304Z,18.85
2022-12-29T00:05:03.419Z,23.60
2022-12-29T00:06:05.384Z,20.60
2022-12-29T00:07:07.982Z,21.27
2022-12-29T00:08:09.740Z,21.75
2022-12-29T00:09:16.389Z,21.23
2022-12-29T00:10:18.176Z,31.23
2022-12-29T00:11:23.961Z,60.45
2022-12-29T00:12:25.770Z,44.72
2022-12-29T00:13:27.685Z,32.67
2022-12-29T00:14:29.816Z,24.35
2022-12-29T00:15:31.812Z,19.52
2022-12-29T00:16:35.686Z,18.10
2022-12-29T00:17:37.501Z,16.08
2022-12-29T00:18:39.347Z,17.08
2022-12-29T00:19:41.357Z,13.63
2022-12-29T00:20:43.272Z,15.03
2022-12-29T00:21:44.949Z,13.95
2022-12-29T00:22:47.007Z,14.52
2022-12-29T00:23:48.760Z,13.77
2022-12-29T00:24:50.754Z,15.07
2022-12-29T00:25:52.493Z,14.98
2022-12-29T00:27:03.150Z,16.33
2022-12-29T00:28:07.658Z,14.55
2022-12-29T00:29:09.921Z,13.45
2022-12-29T00:30:14.359Z,15.73
2022-12-29T00:31:16.162Z,15.83
2022-12-29T00:32:19.985Z,14.45
2022-12-29T00:33:22.850Z,17.58
2022-12-29T00:34:24.578Z,15.15
2022-12-29T00:35:39.856Z,15.85
2022-12-29T00:36:43.525Z,15.90
2022-12-29T00:37:48.889Z,23.23
2022-12-29T00:39:00.406Z,19.73
2022-12-29T00:40:02.051Z,23.08
2022-12-29T00:41:04.087Z,30.33
2022-12-29T00:42:07.785Z,28.07
2022-12-29T00:43:09.508Z,25.10
2022-12-29T00:44:12.657Z,28.52
2022-12-29T00:45:14.436Z,32.05
2022-12-29T00:46:19.916Z,26.90
2022-12-29T00:47:22.174Z,27.10
2022-12-29T00:48:24.021Z,35.95
2022-12-29T00:49:25.858Z,29.17
2022-12-29T00:50:27.622Z,31.75
2022-12-29T00:51:29.817Z,28.98
2022-12-29T00:52:31.528Z,25.03
2022-12-29T00:53:33.558Z,24.75
2022-12-29T00:54:40.924Z,24.55
2022-12-29T00:55:43.307Z,23.50
2022-12-29T00:56:48.568Z,21.42
2022-12-29T00:57:50.342Z,22.00
2022-12-29T00:58:52.211Z,24.25
2022-12-29T00:59:53.954Z,25.30
2022-12-29T01:01:07.350Z,21.02
2022-12-29T01:02:11.095Z,20.42
2022-12-29T01:03:13.168Z,20.93
2022-12-29T01:04:16.068Z,24.45
2022-12-29T01:05:17.777Z,22.20
2022-12-29T01:06:20.086Z,22.08
2022-12-29T01:07:21.806Z,18.60
2022-12-29T01:08:23.579Z,23.42
2022-12-29T01:09:25.902Z,23.08
2022-12-29T01:10:27.635Z,26.13
2022-12-29T01:11:30.342Z,25.48
2022-12-29T01:12:34.578Z,22.48
2022-12-29T01:13:37.591Z,24.13
2022-12-29T01:14:40.219Z,22.50
2022-12-29T01:15:42.107Z,21.95
2022-12-29T01:16:44.019Z,22.75
2022-12-29T01:17:46.221Z,18.40
2022-12-29T01:18:47.927Z,20.13
2022-12-29T01:19:49.937Z,16.88
2022-12-29T01:20:52.068Z,21.98
2022-12-29T01:21:53.769Z,20.33
2022-12-29T01:22:55.868Z,24.30
2022-12-29T01:23:57.634Z,17.37
2022-12-29T01:24:59.339Z,18.02
2022-12-29T01:26:11.860Z,21.30
2022-12-29T01:27:13.875Z,18.33
2022-12-29T01:28:17.824Z,20.20
2022-12-29T01:29:23.300Z,19.30
2022-12-29T01:30:24.960Z,21.75
2022-12-29T01:31:26.759Z,28.30
2022-12-29T01:32:28.544Z,29.23
2022-12-29T01:33:30.278Z,24.63
2022-12-29T01:34:31.918Z,24.67
2022-12-29T01:35:33.718Z,21.48
2022-12-29T01:36:35.729Z,23.83
2022-12-29T01:37:37.438Z,24.75
2022-12-29T01:38:40.344Z,21.08
2022-12-29T01:39:42.184Z,24.50
2022-12-29T01:40:47.701Z,25.88
2022-12-29T01:41:49.532Z,27.85
2022-12-29T01:42:51.477Z,26.20
2022-12-29T01:43:56.519Z,26.85
2022-12-29T01:45:02.659Z,22.53
2022-12-29T01:46:04.564Z,24.55
2022-12-29T01:47:08.373Z,19.55
2022-12-29T01:48:11.565Z,21.63
2022-12-29T01:49:21.975Z,22.55
2022-12-29T01:50:51.901Z,21.63
2022-12-29T01:52:01.766Z,19.30
2022-12-29T01:53:18.644Z,20.48
2022-12-29T01:54:38.300Z,19.08
2022-12-29T01:55:49.107Z,17.20
2022-12-29T01:56:53.219Z,20.57
2022-12-29T01:57:58.507Z,21.85
2022-12-29T01:59:10.897Z,17.55
2022-12-29T02:00:14.889Z,17.27
2022-12-29T02:01:20.827Z,18.20
2022-12-29T02:02:23.329Z,15.48
2022-12-29T02:03:27.268Z,17.40
2022-12-29T02:04:33.520Z,17.02
2022-12-29T02:05:41.481Z,17.88
2022-12-29T02:07:02.024Z,18.85
2022-12-29T02:08:03.866Z,17.37
2022-12-29T02:09:05.581Z,16.17
2022-12-29T02:10:07.847Z,20.08
2022-12-29T02:11:09.608Z,18.63
2022-12-29T02:12:11.568Z,19.35
2022-12-29T02:13:16.752Z,17.95
2022-12-29T02:14:20.013Z,19.10
2022-12-29T02:15:47.886Z,19.48
2022-12-29T02:17:23.427Z,20.05
2022-12-29T02:18:43.203Z,18.55
2022-12-29T02:20:14.986Z,16.13
2022-12-29T02:21:35.342Z,16.83
2022-12-29T02:23:15.740Z,18.83
2022-12-29T02:24:30.188Z,17.58
2022-12-29T02:25:37.579Z,16.52
2022-12-29T02:27:05.653Z,18.75
2022-12-29T02:28:28.896Z,15.55
2022-12-29T02:29:30.501Z,18.67
2022-12-29T02:30:50.729Z,18.45
2022-12-29T02:32:17.165Z,19.63
2022-12-29T02:34:00.333Z,17.40
2022-12-29T02:35:27.057Z,17.38
2022-12-29T02:36:40.702Z,16.13
2022-12-29T02:37:52.041Z,17.05
2022-12-29T02:39:05.848Z,18.90
2022-12-29T02:40:38.908Z,16.88
2022-12-29T02:41:56.756Z,20.15
2022-12-29T02:43:14.209Z,17.92
2022-12-29T02:44:35.727Z,19.10
2022-12-29T02:45:48.661Z,17.17
2022-12-29T02:47:19.719Z,20.03
2022-12-29T02:48:44.179Z,20.27
2022-12-29T02:50:00.560Z,17.40
2022-12-29T02:51:10.494Z,19.25
2022-12-29T02:52:23.181Z,22.30
2022-12-29T02:53:25.970Z,19.27
2022-12-29T02:54:28.247Z,21.35
2022-12-29T02:55:30.148Z,19.75
2022-12-29T02:56:32.018Z,17.27
2022-12-29T02:57:35.969Z,19.33
2022-12-29T02:58:37.729Z,21.43
2022-12-29T02:59:40.238Z,19.50
2022-12-29T03:01:01.583Z,19.60
2022-12-29T03:02:25.459Z,20.58
2022-12-29T03:03:42.296Z,21.92
2022-12-29T03:05:01.413Z,18.25
2022-12-29T03:06:09.057Z,19.33
2022-12-29T03:07:10.797Z,20.42
2022-12-29T03:08:56.514Z,19.52
2022-12-29T03:10:09.506Z,21.30
2022-12-29T03:11:14.594Z,19.27
2022-12-29T03:12:27.984Z,18.73
2022-12-29T03:13:50.575Z,22.13
2022-12-29T03:15:08.401Z,20.15
2022-12-29T03:16:24.111Z,19.77
2022-12-29T03:17:34.983Z,16.35
2022-12-29T03:18:53.228Z,19.80
2022-12-29T03:20:02.797Z,18.70
2022-12-29T03:21:11.282Z,21.60
2022-12-29T03:22:26.112Z,21.10
2022-12-29T03:23:29.793Z,26.30
2022-12-29T03:24:37.133Z,23.13
2022-12-29T03:25:44.526Z,23.52
2022-12-29T03:26:48.548Z,20.55
2022-12-29T03:27:56.887Z,23.23
2022-12-29T03:28:58.652Z,21.33
2022-12-29T03:30:04.744Z,22.52
2022-12-29T03:31:09.665Z,20.45
2022-12-29T03:32:14.602Z,22.02
2022-12-29T03:33:22.703Z,23.67
2022-12-29T03:34:26.055Z,19.23
2022-12-29T03:35:33.054Z,25.52
2022-12-29T03:36:45.625Z,22.95
2022-12-29T03:38:13.430Z,21.08
2022-12-29T03:39:15.431Z,19.83
2022-12-29T03:40:19.008Z,19.52
2022-12-29T03:41:27.080Z,20.92
2022-12-29T03:42:33.745Z,21.08
2022-12-29T03:43:36.770Z,21.58
2022-12-29T03:44:41.525Z,22.80
2022-12-29T03:45:43.466Z,20.43
2022-12-29T03:46:45.323Z,17.45
2022-12-29T03:47:47.436Z,17.17
2022-12-29T03:48:49.094Z,21.63
2022-12-29T03:49:51.386Z,21.27
2022-12-29T03:50:53.136Z,20.17
2022-12-29T03:51:55.143Z,17.67
2022-12-29T03:52:56.866Z,20.88
2022-12-29T03:53:58.569Z,20.73
2022-12-29T03:55:00.255Z,24.40
2022-12-29T03:56:01.981Z,22.33
2022-12-29T03:57:03.750Z,20.00
2022-12-29T03:58:05.445Z,21.88
2022-12-29T03:59:07.147Z,24.92
2022-12-29T04:00:10.307Z,22.25
2022-12-29T04:01:12.206Z,17.95
2022-12-29T04:02:14.304Z,19.33
2022-12-29T04:03:16.417Z,18.23
2022-12-29T04:04:20.141Z,19.02
2022-12-29T04:05:22.037Z,19.55
2022-12-29T04:06:23.772Z,18.83
2022-12-29T04:07:25.477Z,20.40
2022-12-29T04:08:27.223Z,20.98
2022-12-29T04:09:28.935Z,17.67
2022-12-29T04:10:30.839Z,19.45
2022-12-29T04:11:33.421Z,22.02
2022-12-29T04:12:36.628Z,19.63
2022-12-29T04:13:38.420Z,18.83
2022-12-29T04:14:40.179Z,21.52
2022-12-29T04:15:41.935Z,16.85
2022-12-29T04:16:43.590Z,19.33
2022-12-29T04:17:45.283Z,21.75
2022-12-29T04:18:46.988Z,18.30
2022-12-29T04:19:48.690Z,17.92
2022-12-29T04:20:50.546Z,24.83
2022-12-29T04:21:52.283Z,20.38
2022-12-29T04:23:01.724Z,17.00
2022-12-29T04:24:03.648Z,17.92
2022-12-29T04:25:05.802Z,15.38
2022-12-29T04:26:08.558Z,18.70
2022-12-29T04:27:10.413Z,18.80
2022-12-29T04:28:12.132Z,16.60
2022-12-29T04:29:13.932Z,16.75
2022-12-29T04:30:16.203Z,15.95
2022-12-29T04:31:20.064Z,15.55
2022-12-29T04:32:21.872Z,15.48
2022-12-29T04:33:23.932Z,15.95
2022-12-29T04:34:25.652Z,18.20
2022-12-29T04:35:27.405Z,17.40
2022-12-29T04:36:30.249Z,17.42
2022-12-29T04:37:32.231Z,15.30
2022-12-29T04:38:34.266Z,16.50
2022-12-29T04:39:35.916Z,16.55
2022-12-29T04:40:39.711Z,17.38
2022-12-29T04:41:41.420Z,15.73
2022-12-29T04:42:43.269Z,15.82
2022-12-29T04:43:44.986Z,15.10
2022-12-29T04:44:46.731Z,18.83
2022-12-29T04:45:48.897Z,16.08
2022-12-29T04:46:50.726Z,20.60
2022-12-29T04:47:52.534Z,16.23
2022-12-29T04:48:54.478Z,17.73
2022-12-29T04:49:56.842Z,15.88
2022-12-29T04:50:58.560Z,16.50
2022-12-29T04:52:00.307Z,17.42
2022-12-29T04:53:02.138Z,16.25
2022-12-29T04:54:04.002Z,17.60
2022-12-29T04:55:06.534Z,16.60
2022-12-29T04:56:09.816Z,18.83
2022-12-29T04:57:11.742Z,17.90
2022-12-29T04:58:18.978Z,18.00
2022-12-29T04:59:24.184Z,18.52
2022-12-29T05:00:26.010Z,16.02
2022-12-29T05:01:27.877Z,18.48
2022-12-29T05:02:29.855Z,16.88
2022-12-29T05:03:31.784Z,18.60
2022-12-29T05:04:33.494Z,21.17
2022-12-29T05:05:35.531Z,15.98
2022-12-29T05:06:37.283Z,15.70
2022-12-29T05:07:39.271Z,18.10
2022-12-29T05:08:41.011Z,17.07
2022-12-29T05:09:42.869Z,16.63
2022-12-29T05:10:47.829Z,17.05
2022-12-29T05:11:49.977Z,15.27
2022-12-29T05:12:51.663Z,17.20
2022-12-29T05:13:53.401Z,15.82
2022-12-29T05:14:55.261Z,17.02
2022-12-29T05:15:57.066Z,15.85
2022-12-29T05:17:36.454Z,16.35
2022-12-29T05:18:38.187Z,17.08
2022-12-29T05:19:39.943Z,15.83
2022-12-29T05:20:41.703Z,17.55
2022-12-29T05:21:43.898Z,14.82
2022-12-29T05:22:45.957Z,15.55
2022-12-29T05:23:47.643Z,18.20
2022-12-29T05:24:49.416Z,16.10
2022-12-29T05:25:51.201Z,17.73
2022-12-29T05:26:52.852Z,17.52
2022-12-29T05:27:54.523Z,16.30
2022-12-29T05:28:56.273Z,17.58
2022-12-29T05:29:58.017Z,15.23
2022-12-29T05:30:59.884Z,18.38
2022-12-29T05:32:01.734Z,19.20
2022-12-29T05:33:03.611Z,17.42
2022-12-29T05:34:05.483Z,18.25
2022-12-29T05:35:07.751Z,16.55
2022-12-29T05:36:10.868Z,19.35
2022-12-29T05:37:12.613Z,18.42
2022-12-29T05:38:14.346Z,21.45
2022-12-29T05:39:16.302Z,17.65
2022-12-29T05:40:18.081Z,19.90
2022-12-29T05:41:20.343Z,23.13
2022-12-29T05:42:22.251Z,18.60
2022-12-29T05:43:23.967Z,19.60
2022-12-29T05:44:25.751Z,18.70
2022-12-29T05:45:27.538Z,19.83
2022-12-29T05:46:29.305Z,21.50
2022-12-29T05:47:31.070Z,19.02
2022-12-29T05:48:37.628Z,18.90
2022-12-29T05:49:39.910Z,22.95
2022-12-29T05:50:41.769Z,22.80
2022-12-29T05:52:21.035Z,21.17
2022-12-29T05:53:22.766Z,28.92
2022-12-29T05:54:24.571Z,32.28
2022-12-29T05:55:26.340Z,48.80
2022-12-29T05:56:28.159Z,60.25
2022-12-29T05:57:29.962Z,54.83
2022-12-29T05:58:31.645Z,47.55
2022-12-29T05:59:33.351Z,38.38
2022-12-29T06:00:35.074Z,34.25
2022-12-29T06:01:36.980Z,30.50
2022-12-29T06:02:39.035Z,28.70
2022-12-29T06:03:47.755Z,22.58
2022-12-29T06:04:49.998Z,23.75
2022-12-29T06:05:51.686Z,19.83
2022-12-29T06:06:53.576Z,18.95
2022-12-29T06:07:55.318Z,20.60
2022-12-29T06:08:57.078Z,21.02
2022-12-29T06:09:58.823Z,18.10
2022-12-29T06:11:00.747Z,18.75
2022-12-29T06:12:02.473Z,18.07
2022-12-29T06:13:04.405Z,19.45
2022-12-29T06:14:06.079Z,20.50
2022-12-29T06:15:08.319Z,19.02
2022-12-29T06:16:10.141Z,19.90
2022-12-29T06:17:11.919Z,16.88
2022-12-29T06:18:19.680Z,18.55
2022-12-29T06:19:21.967Z,15.88
2022-12-29T06:20:23.883Z,18.45
2022-12-29T06:21:25.637Z,19.08
2022-12-29T06:22:27.580Z,17.67
2022-12-29T06:23:29.307Z,18.63
2022-12-29T06:24:30.998Z,18.33
2022-12-29T06:25:32.713Z,18.40
2022-12-29T06:26:34.427Z,16.65
2022-12-29T06:27:36.282Z,18.23
2022-12-29T06:28:38.017Z,17.02
2022-12-29T06:29:39.764Z,20.38
2022-12-29T06:30:45.303Z,20.33
2022-12-29T06:31:47.527Z,17.70
2022-12-29T06:32:49.397Z,21.33
2022-12-29T06:33:51.259Z,15.82
2022-12-29T06:34:53.049Z,18.77
2022-12-29T06:35:54.800Z,18.15
2022-12-29T06:36:56.536Z,18.08
2022-12-29T06:37:58.305Z,18.65
2022-12-29T06:39:00.043Z,20.80
2022-12-29T06:40:01.986Z,21.98
2022-12-29T06:41:03.790Z,21.83
2022-12-29T06:42:05.568Z,20.23
2022-12-29T06:43:07.352Z,21.03
2022-12-29T06:44:09.107Z,23.85
2022-12-29T06:45:11.259Z,21.83
2022-12-29T06:46:13.212Z,21.92
2022-12-29T06:47:15.046Z,24.77
2022-12-29T06:48:16.831Z,22.88
2022-12-29T06:49:19.092Z,22.88
2022-12-29T06:50:20.984Z,21.85
2022-12-29T06:51:22.647Z,25.30
2022-12-29T06:52:24.366Z,29.20
2022-12-29T06:53:26.035Z,28.83
2022-12-29T06:54:28.101Z,22.92
2022-12-29T06:55:29.994Z,36.95
2022-12-29T06:56:31.735Z,42.80
2022-12-29T06:57:33.671Z,48.58
2022-12-29T06:58:35.349Z,38.42
2022-12-29T06:59:37.106Z,41.08
2022-12-29T07:00:38.837Z,37.65
2022-12-29T07:01:40.574Z,37.03
2022-12-29T07:02:42.503Z,42.95
2022-12-29T07:03:44.261Z,39.53
2022-12-29T07:04:46.128Z,44.83
2022-12-29T07:05:47.837Z,46.88
2022-12-29T07:06:49.727Z,45.15
2022-12-29T07:07:51.557Z,42.33
2022-12-29T07:08:53.513Z,41.40
2022-12-29T07:09:55.276Z,37.30
2022-12-29T07:10:57.042Z,40.40
2022-12-29T07:11:58.927Z,39.65
2022-12-29T07:13:00.656Z,43.03
2022-12-29T07:14:03.680Z,45.10
2022-12-29T07:15:06.138Z,41.55
2022-12-29T07:16:11.563Z,43.13
2022-12-29T07:17:13.500Z,43.35
2022-12-29T07:18:15.740Z,44.47
2022-12-29T07:19:17.486Z,44.50
2022-12-29T07:20:26.270Z,51.33
2022-12-29T07:21:28.394Z,48.00
2022-12-29T07:22:30.170Z,44.25
2022-12-29T07:23:32.047Z,36.63
2022-12-29T07:24:33.795Z,38.07
2022-12-29T07:25:36.272Z,37.85
2022-12-29T07:26:37.986Z,39.47
2022-12-29T07:27:39.721Z,40.55
2022-12-29T07:28:41.958Z,35.78
2022-12-29T07:29:43.683Z,45.30
2022-12-29T07:30:47.350Z,37.80
2022-12-29T07:31:49.191Z,41.50
2022-12-29T07:32:50.902Z,36.28
2022-12-29T07:33:52.550Z,48.45
2022-12-29T07:34:54.329Z,41.03
2022-12-29T07:35:56.293Z,45.88
2022-12-29T07:36:58.154Z,37.75
2022-12-29T07:37:59.910Z,39.10
2022-12-29T07:39:01.940Z,41.08
2022-12-29T07:40:04.486Z,41.35
2022-12-29T07:41:06.378Z,38.88
2022-12-29T07:42:08.337Z,37.50
2022-12-29T07:43:10.074Z,39.00
2022-12-29T07:44:12.002Z,49.15
2022-12-29T07:45:13.983Z,50.03
2022-12-29T07:46:54.969Z,40.55
2022-12-29T07:47:38.249Z,35.90
2022-12-29T07:48:39.995Z,42.15
2022-12-29T07:49:41.852Z,38.00
2022-12-29T07:50:43.632Z,46.38
2022-12-29T07:51:45.338Z,43.67
2022-12-29T07:52:47.140Z,37.45
2022-12-29T07:53:48.894Z,60.25
2022-12-29T07:54:50.671Z,42.72
2022-12-29T07:55:52.385Z,43.20
2022-12-29T07:56:55.050Z,40.75
2022-12-29T07:57:57.615Z,37.78
2022-12-29T07:58:59.385Z,38.50
2022-12-29T08:00:01.359Z,38.30
2022-12-29T08:01:03.127Z,49.47
2022-12-29T08:02:05.119Z,49.83
2022-12-29T08:03:07.003Z,47.17
2022-12-29T08:04:09.077Z,48.30
2022-12-29T08:05:10.943Z,52.35
2022-12-29T08:06:12.987Z,47.80
2022-12-29T08:07:14.741Z,50.60
2022-12-29T08:08:16.850Z,50.30
2022-12-29T08:09:22.623Z,48.55
2022-12-29T08:10:26.124Z,42.03
2022-12-29T08:11:27.935Z,43.35
2022-12-29T08:12:30.010Z,49.92
2022-12-29T08:13:31.814Z,46.83
2022-12-29T08:14:33.627Z,54.58
2022-12-29T08:15:35.483Z,46.08
2022-12-29T08:16:37.374Z,48.70
2022-12-29T08:17:39.352Z,54.92
2022-12-29T08:18:41.188Z,40.33
2022-12-29T08:19:42.939Z,32.70
2022-12-29T08:20:44.703Z,31.33
2022-12-29T08:21:46.651Z,33.28
2022-12-29T08:22:48.491Z,31.67
2022-12-29T08:23:50.350Z,31.17
2022-12-29T08:24:52.207Z,30.60
2022-12-29T08:26:01.651Z,34.00
2022-12-29T08:27:12.033Z,63.47
2022-12-29T08:28:15.168Z,44.90
2022-12-29T08:29:16.864Z,23.23
2022-12-29T08:30:18.588Z,19.10
2022-12-29T08:31:20.417Z,22.13
2022-12-29T08:32:22.283Z,22.90
2022-12-29T08:33:24.233Z,26.05
2022-12-29T08:34:25.933Z,31.42
2022-12-29T08:35:28.105Z,26.65
2022-12-29T08:36:30.807Z,29.33
2022-12-29T08:37:34.387Z,32.17
2022-12-29T08:38:36.105Z,34.42
2022-12-29T08:39:37.816Z,28.52
2022-12-29T08:40:39.557Z,43.10
2022-12-29T08:41:41.388Z,29.20
2022-12-29T08:42:43.245Z,46.78
2022-12-29T08:43:50.365Z,27.40
2022-12-29T08:44:52.094Z,22.85
2022-12-29T08:45:53.874Z,21.70
2022-12-29T08:46:55.633Z,22.85
2022-12-29T08:47:57.394Z,26.23
2022-12-29T08:48:59.144Z,29.20
2022-12-29T08:50:00.908Z,26.52
2022-12-29T08:51:02.656Z,23.88
2022-12-29T08:52:05.229Z,27.08
2022-12-29T08:53:06.967Z,27.10
2022-12-29T08:54:08.883Z,24.80
2022-12-29T08:55:10.598Z,21.73
2022-12-29T08:56:12.379Z,25.60
2022-12-29T08:57:14.345Z,22.63
2022-12-29T08:58:16.052Z,25.30
2022-12-29T08:59:17.772Z,22.48
2022-12-29T09:00:19.646Z,22.27
2022-12-29T09:01:22.160Z,26.20
2022-12-29T09:02:24.667Z,26.27
2022-12-29T09:03:55.167Z,23.75
2022-12-29T09:04:48.577Z,23.38
2022-12-29T09:05:51.794Z,26.08
2022-12-29T09:06:53.496Z,28.25
2022-12-29T09:07:55.346Z,27.20
2022-12-29T09:08:57.132Z,24.57
2022-12-29T09:09:58.966Z,22.55
2022-12-29T09:11:16.974Z,26.80
2022-12-29T09:12:19.256Z,25.70
2022-12-29T09:13:21.181Z,27.70
2022-12-29T09:14:22.957Z,24.13
2022-12-29T09:15:25.081Z,22.83
2022-12-29T09:16:27.023Z,26.27
2022-12-29T09:17:28.850Z,23.15
2022-12-29T09:18:30.707Z,23.92
2022-12-29T09:19:32.597Z,26.67
2022-12-29T09:20:34.363Z,25.48
2022-12-29T09:21:36.043Z,25.15
2022-12-29T09:22:38.059Z,30.58
2022-12-29T09:23:40.365Z,23.90
2022-12-29T09:24:42.128Z,27.00
2022-12-29T09:25:43.839Z,22.30
2022-12-29T09:26:47.198Z,22.65
2022-12-29T09:27:49.080Z,24.58
2022-12-29T09:28:50.757Z,25.50
2022-12-29T09:29:52.416Z,25.70
2022-12-29T09:30:54.160Z,28.52
2022-12-29T09:31:55.930Z,22.63
2022-12-29T09:32:57.941Z,21.73
2022-12-29T09:33:59.679Z,23.73
2022-12-29T09:35:01.941Z,21.52
2022-12-29T09:36:04.141Z,23.98
2022-12-29T09:37:05.831Z,20.17
2022-12-29T09:38:07.590Z,22.40
2022-12-29T09:39:09.887Z,22.88
2022-12-29T09:40:26.279Z,21.77
2022-12-29T09:41:37.248Z,27.77
2022-12-29T09:43:06.829Z,22.58
2022-12-29T09:44:29.242Z,25.70
2022-12-29T09:45:40.632Z,25.42
2022-12-29T09:46:47.307Z,23.70
2022-12-29T09:47:49.215Z,24.73
2022-12-29T09:49:27.104Z,23.23
2022-12-29T09:50:35.953Z,21.38
2022-12-29T09:51:40.287Z,23.27
2022-12-29T09:52:51.536Z,24.67
2022-12-29T09:54:30.039Z,24.73
2022-12-29T09:55:39.589Z,22.10
2022-12-29T09:56:41.391Z,21.48
2022-12-29T09:57:51.572Z,24.30
2022-12-29T09:58:59.569Z,31.23
2022-12-29T10:00:23.526Z,29.58
2022-12-29T10:01:31.488Z,26.92
2022-12-29T10:02:36.511Z,19.92
2022-12-29T10:03:53.819Z,27.65
2022-12-29T10:04:55.653Z,17.13
2022-12-29T10:06:00.164Z,17.40
2022-12-29T10:08:38.710Z,16.73
2022-12-29T10:10:11.422Z,20.67
2022-12-29T10:11:34.693Z,19.05
2022-12-29T10:13:30.582Z,20.00
2022-12-29T10:14:48.663Z,21.00
2022-12-29T10:16:01.994Z,18.83
2022-12-29T10:17:22.334Z,20.50
2022-12-29T10:18:30.040Z,20.40
2022-12-29T10:20:04.100Z,18.48
2022-12-29T10:21:18.049Z,21.52
2022-12-29T10:22:31.777Z,21.48
2022-12-29T10:23:53.970Z,19.95
2022-12-29T10:24:57.286Z,18.95
2022-12-29T10:26:00.683Z,22.80
2022-12-29T10:27:03.524Z,23.20
2022-12-29T10:28:16.119Z,23.25
2022-12-29T10:29:20.400Z,19.85
2022-12-29T10:30:22.393Z,21.00
2022-12-29T10:31:26.261Z,21.35
2022-12-29T10:32:41.907Z,19.60
2022-12-29T10:33:44.644Z,20.77
2022-12-29T10:34:51.280Z,20.85
2022-12-29T10:35:53.266Z,27.13
2022-12-29T10:37:12.483Z,22.17
2022-12-29T10:38:19.213Z,27.10
2022-12-29T10:39:27.167Z,25.65
2022-12-29T10:40:37.360Z,24.33
2022-12-29T10:41:59.186Z,24.23
2022-12-29T10:43:01.918Z,24.63
2022-12-29T10:44:03.725Z,25.73
2022-12-29T10:45:06.751Z,23.05
2022-12-29T10:46:15.631Z,19.58
2022-12-29T10:47:25.840Z,26.67
2022-12-29T10:48:32.152Z,21.05
2022-12-29T10:49:41.352Z,24.30
2022-12-29T10:50:43.249Z,20.42
2022-12-29T10:51:48.120Z,23.42
2022-12-29T10:52:50.408Z,20.83
2022-12-29T10:54:03.821Z,24.25
2022-12-29T10:55:20.321Z,19.98
2022-12-29T10:56:36.537Z,18.42
2022-12-29T10:57:41.989Z,17.67
2022-12-29T10:58:49.748Z,19.27
2022-12-29T10:59:51.905Z,21.65
2022-12-29T11:00:55.648Z,17.80
2022-12-29T11:02:17.260Z,19.17
2022-12-29T11:03:40.864Z,24.80
2022-12-29T11:04:48.228Z,20.10
2022-12-29T11:05:58.913Z,21.52
2022-12-29T11:07:02.045Z,20.33
2022-12-29T11:08:10.464Z,20.58
2022-12-29T11:09:28.704Z,21.25
2022-12-29T11:10:41.348Z,19.20
2022-12-29T11:11:43.083Z,19.48
2022-12-29T11:13:00.253Z,20.15
2022-12-29T11:14:27.141Z,15.73
2022-12-29T11:15:39.617Z,19.75
2022-12-29T11:16:42.331Z,19.53
2022-12-29T11:17:52.765Z,20.77
2022-12-29T11:18:54.517Z,17.40
2022-12-29T11:19:56.674Z,21.35
2022-12-29T11:21:03.865Z,18.17
2022-12-29T11:22:25.609Z,21.17
2022-12-29T11:23:40.591Z,16.85
2022-12-29T11:24:47.357Z,17.33
2022-12-29T11:26:28.829Z,16.27
2022-12-29T11:27:33.738Z,16.00
2022-12-29T11:28:35.913Z,17.33
2022-12-29T11:29:43.631Z,25.50
2022-12-29T11:30:45.608Z,24.48
2022-12-29T11:31:56.075Z,24.67
2022-12-29T11:32:59.327Z,19.42
2022-12-29T11:34:08.071Z,18.77
2022-12-29T11:35:37.070Z,20.38
2022-12-29T11:36:39.930Z,17.58
2022-12-29T11:37:41.797Z,19.70
2022-12-29T11:38:49.130Z,44.67
2022-12-29T11:40:03.910Z,21.63
2022-12-29T11:41:07.860Z,20.70
2022-12-29T11:42:18.823Z,62.53
2022-12-29T11:43:32.105Z,36.85
2022-12-29T11:44:38.369Z,35.95
2022-12-29T11:45:47.942Z,30.10
2022-12-29T11:46:53.290Z,21.75
2022-12-29T11:48:01.933Z,22.60
2022-12-29T11:49:04.167Z,24.13
2022-12-29T11:50:08.396Z,40.97
2022-12-29T11:51:12.517Z,23.07
2022-12-29T11:52:14.307Z,22.30
2022-12-29T11:53:38.571Z,47.53
2022-12-29T11:54:40.434Z,32.15
2022-12-29T11:55:56.493Z,26.35
2022-12-29T11:57:00.033Z,23.45
2022-12-29T11:58:04.797Z,24.50
2022-12-29T11:59:37.208Z,21.98
2022-12-29T12:00:40.083Z,20.77
2022-12-29T12:01:43.878Z,28.65
2022-12-29T12:02:48.788Z,25.37
2022-12-29T12:04:05.156Z,22.15
2022-12-29T12:05:21.328Z,34.55
2022-12-29T12:06:24.554Z,25.42
2022-12-29T12:07:36.288Z,22.65
2022-12-29T12:08:56.838Z,26.55
2022-12-29T12:10:07.459Z,22.38
2022-12-29T12:11:25.082Z,26.88
2022-12-29T12:12:36.054Z,20.55
2022-12-29T12:13:44.013Z,24.00
2022-12-29T12:14:56.332Z,23.30
2022-12-29T12:16:12.421Z,23.30
2022-12-29T12:17:20.903Z,21.83
2022-12-29T12:18:41.264Z,23.75
2022-12-29T12:19:50.751Z,24.73
2022-12-29T12:21:19.535Z,25.52
2022-12-29T12:22:40.005Z,70.15
2022-12-29T12:24:22.915Z,37.65
2022-12-29T12:25:32.167Z,29.55
2022-12-29T12:26:59.924Z,23.08
2022-12-29T12:28:12.171Z,24.17
2022-12-29T12:29:39.715Z,22.48
2022-12-29T12:30:52.394Z,24.48
2022-12-29T12:32:03.012Z,21.20
2022-12-29T12:33:28.715Z,21.08
2022-12-29T12:34:38.484Z,24.15
2022-12-29T12:36:10.898Z,25.48
2022-12-29T12:37:53.617Z,24.92
2022-12-29T12:39:03.672Z,34.95
2022-12-29T12:40:40.773Z,33.60
2022-12-29T12:42:25.740Z,36.70
2022-12-29T12:43:39.791Z,48.08
2022-12-29T12:44:59.547Z,67.93
2022-12-29T12:46:09.340Z,32.53
2022-12-29T12:47:45.312Z,30.38
2022-12-29T12:49:05.445Z,27.00
2022-12-29T12:50:27.447Z,26.63
2022-12-29T12:51:43.709Z,46.05
2022-12-29T12:53:13.068Z,41.22
2022-12-29T12:54:43.681Z,25.60
2022-12-29T12:55:45.567Z,32.37
2022-12-29T12:57:17.945Z,27.63
2022-12-29T12:58:25.972Z,26.20
2022-12-29T12:59:39.422Z,32.28
2022-12-29T13:01:03.029Z,28.02
2022-12-29T13:02:23.203Z,25.65
2022-12-29T13:03:59.873Z,29.10
2022-12-29T13:05:04.630Z,27.63
2022-12-29T13:06:47.677Z,25.83
2022-12-29T13:08:07.926Z,25.52
2022-12-29T13:09:21.941Z,22.30
2022-12-29T13:10:45.834Z,27.95
2022-12-29T13:12:08.826Z,24.25
2022-12-29T13:13:47.776Z,25.88
2022-12-29T13:15:24.657Z,27.98
2022-12-29T13:16:49.043Z,27.17
2022-12-29T13:18:11.088Z,28.30
2022-12-29T13:19:41.869Z,28.92
2022-12-29T13:21:05.662Z,29.52
2022-12-29T13:22:07.359Z,27.70
2022-12-29T13:23:18.178Z,28.30
2022-12-29T13:24:51.967Z,28.75
2022-12-29T13:26:01.809Z,28.23
2022-12-29T13:27:35.365Z,27.25
2022-12-29T13:28:56.857Z,24.83
2022-12-29T13:30:16.686Z,27.00
2022-12-29T13:31:26.245Z,27.25
2022-12-29T13:32:33.899Z,29.30
2022-12-29T13:33:38.463Z,24.88
2022-12-29T13:34:40.178Z,28.88
2022-12-29T13:36:00.706Z,28.47
2022-12-29T13:37:12.821Z,28.25
2022-12-29T13:38:31.818Z,28.98
2022-12-29T13:39:38.694Z,29.40
2022-12-29T13:40:46.656Z,27.60
2022-12-29T13:41:58.398Z,28.10
2022-12-29T13:43:02.310Z,29.80
2022-12-29T13:44:05.725Z,29.58
2022-12-29T13:45:14.640Z,29.60
2022-12-29T13:46:30.690Z,33.35
2022-12-29T13:47:40.762Z,32.83
2022-12-29T13:48:54.431Z,35.03
2022-12-29T13:49:59.224Z,30.60
2022-12-29T13:51:02.276Z,40.40
2022-12-29T13:52:39.296Z,60.15
2022-12-29T13:54:16.040Z,67.28
2022-12-29T13:55:23.551Z,36.60
2022-12-29T13:56:53.532Z,34.58
2022-12-29T13:58:06.264Z,29.00
2022-12-29T13:59:16.951Z,29.30
2022-12-29T14:00:27.341Z,32.60
2022-12-29T14:01:37.107Z,33.08
2022-12-29T14:03:14.049Z,32.05
2022-12-29T14:04:25.950Z,30.52
2022-12-29T14:05:30.377Z,31.35
2022-12-29T14:06:35.205Z,29.88
2022-12-29T14:07:39.880Z,29.42
2022-12-29T14:08:41.986Z,29.40
2022-12-29T14:09:47.471Z,42.45
2022-12-29T14:10:52.353Z,40.17
2022-12-29T14:11:54.619Z,46.70
2022-12-29T14:13:27.197Z,51.97
2022-12-29T14:14:33.276Z,37.10
2022-12-29T14:15:39.663Z,36.00
2022-12-29T14:16:41.633Z,37.97
2022-12-29T14:17:44.096Z,42.53
2022-12-29T14:18:49.186Z,42.30
2022-12-29T14:19:55.233Z,42.97
2022-12-29T14:21:06.450Z,40.80
2022-12-29T14:22:09.909Z,43.53
2022-12-29T14:23:11.662Z,42.67
2022-12-29T14:24:35.179Z,41.00
2022-12-29T14:26:05.812Z,32.85
2022-12-29T14:27:13.288Z,33.20
2022-12-29T14:28:24.934Z,36.08